createdAt,value
2023-03-24T00:01:56.263Z,87.50
2023-03-24T00:04:25.129Z,87.19
2023-03-24T00:06:52.576Z,87.39
2023-03-24T00:09:19.913Z,87.15
2023-03-24T00:11:47.273Z,87.47
2023-03-24T00:14:14.149Z,87.32
2023-03-24T00:16:43.132Z,87.55
2023-03-24T00:19:13.586Z,87.70
2023-03-24T00:21:42.135Z,87.61
2023-03-24T00:24:10.086Z,87.96
2023-03-24T00:26:39.177Z,87.73
2023-03-24T00:29:08.067Z,87.83
2023-03-24T00:31:40.125Z,88.16
2023-03-24T00:34:08.962Z,88.14
2023-03-24T00:36:36.883Z,87.89
2023-03-24T00:39:06.369Z,88.13
2023-03-24T00:41:33.811Z,87.79
2023-03-24T00:44:03.604Z,88.00
2023-03-24T00:46:30.780Z,87.70
2023-03-24T00:49:05.887Z,87.73
2023-03-24T00:51:38.814Z,87.86
2023-03-24T00:54:09.435Z,88.11
2023-03-24T00:56:40.691Z,88.38
2023-03-24T00:59:10.258Z,88.30
2023-03-24T01:01:41.169Z,88.61
2023-03-24T01:04:08.595Z,88.68
2023-03-24T01:06:39.432Z,88.49
2023-03-24T01:09:07.443Z,88.51
2023-03-24T01:11:40.334Z,88.30
2023-03-24T01:14:08.799Z,88.41
2023-03-24T01:16:36.352Z,88.47
2023-03-24T01:19:04.337Z,88.61
2023-03-24T01:21:31.867Z,88.67
2023-03-24T01:23:58.744Z,88.59
2023-03-24T01:26:25.532Z,88.44
2023-03-24T01:28:52.365Z,88.42
2023-03-24T01:31:19.357Z,88.59
2023-03-24T01:33:46.243Z,88.60
2023-03-24T01:36:13.168Z,88.99
2023-03-24T01:38:40.145Z,89.45
2023-03-24T01:41:07.464Z,89.31
2023-03-24T01:43:35.992Z,90.04
2023-03-24T01:46:18.776Z,89.85
2023-03-24T01:48:55.304Z,90.20
2023-03-24T01:51:35.667Z,89.98
2023-03-24T01:54:18.670Z,90.73
2023-03-24T01:56:57.057Z,90.82
2023-03-24T01:59:27.444Z,91.15
2023-03-24T02:02:03.006Z,90.88
2023-03-24T02:04:34.660Z,91.14
2023-03-24T02:07:28.496Z,90.74
2023-03-24T02:09:55.465Z,90.95
2023-03-24T02:12:22.358Z,90.74
2023-03-24T02:14:50.025Z,90.62
2023-03-24T02:17:48.633Z,90.74
2023-03-24T02:20:40.307Z,90.19
2023-03-24T02:23:32.047Z,89.98
2023-03-24T02:26:20.908Z,89.59
2023-03-24T02:29:27.849Z,89.52
2023-03-24T02:32:22.971Z,89.57
2023-03-24T02:35:12.654Z,89.29
2023-03-24T02:38:24.001Z,89.39
2023-03-24T02:41:05.082Z,89.15
2023-03-24T02:43:39.760Z,89.11
2023-03-24T02:46:23.843Z,88.98
2023-03-24T02:49:16.358Z,88.57
2023-03-24T02:51:50.366Z,88.61
2023-03-24T02:54:56.312Z,88.63
2023-03-24T02:57:36.226Z,88.46
2023-03-24T03:00:21.440Z,88.54
2023-03-24T03:02:56.120Z,88.46
2023-03-24T03:05:34.584Z,88.86
2023-03-24T03:08:06.123Z,88.70
2023-03-24T03:10:39.276Z,88.54
2023-03-24T03:13:14.770Z,88.44
2023-03-24T03:15:46.583Z,88.48
2023-03-24T03:19:00.036Z,88.31
2023-03-24T03:21:32.781Z,88.48
2023-03-24T03:24:07.138Z,88.69
2023-03-24T03:26:34.693Z,88.52
2023-03-24T03:29:19.053Z,88.34
2023-03-24T03:32:07.990Z,88.65
2023-03-24T03:34:37.929Z,88.51
2023-03-24T03:37:22.744Z,88.30
2023-03-24T03:39:58.920Z,88.41
2023-03-24T03:42:25.926Z,88.59
2023-03-24T03:44:53.406Z,88.45
2023-03-24T03:47:23.072Z,89.13
2023-03-24T03:49:51.058Z,90.46
2023-03-24T03:52:18.416Z,93.27
2023-03-24T03:54:45.790Z,94.25
2023-03-24T03:57:13.883Z,95.16
2023-03-24T03:59:41.050Z,97.78
2023-03-24T04:02:13.834Z,97.94
2023-03-24T04:05:03.230Z,97.95
2023-03-24T04:07:40.063Z,95.34
2023-03-24T04:10:25.096Z,99.72
2023-03-24T04:13:15.740Z,100.00
2023-03-24T04:15:58.624Z,100.00
2023-03-24T04:18:47.249Z,100.00
2023-03-24T04:21:33.652Z,100.00
2023-03-24T04:24:06.746Z,100.00
2023-03-24T04:26:36.231Z,100.00
2023-03-24T04:29:09.220Z,100.00
2023-03-24T04:31:49.378Z,100.00
2023-03-24T04:34:29.351Z,100.00
2023-03-24T04:37:08.342Z,100.00
2023-03-24T04:39:39.273Z,100.00
2023-03-24T04:42:10.616Z,100.00
2023-03-24T04:44:37.770Z,100.00
2023-03-24T04:47:05.948Z,100.00
2023-03-24T04:49:32.732Z,100.00
2023-03-24T04:51:59.553Z,100.00
2023-03-24T04:54:29.866Z,100.00
2023-03-24T04:57:02.003Z,100.00
2023-03-24T04:59:30.505Z,100.00
2023-03-24T05:01:57.464Z,100.00
2023-03-24T05:04:26.181Z,100.00
2023-03-24T05:06:53.125Z,100.00
2023-03-24T05:09:21.895Z,100.00
2023-03-24T05:11:49.679Z,100.00
2023-03-24T05:14:17.101Z,100.00
2023-03-24T05:16:44.042Z,100.00
2023-03-24T05:19:11.104Z,100.00
2023-03-24T05:21:38.274Z,100.00
2023-03-24T05:24:06.836Z,100.00
2023-03-24T05:26:34.098Z,100.00
2023-03-24T05:29:01.023Z,100.00
2023-03-24T05:31:27.949Z,100.00
2023-03-24T05:33:55.664Z,100.00
2023-03-24T05:36:22.516Z,100.00
2023-03-24T05:38:49.484Z,100.00
2023-03-24T05:41:16.295Z,100.00
2023-03-24T05:43:43.119Z,100.00
2023-03-24T05:46:10.036Z,100.00
2023-03-24T05:48:36.760Z,100.00
2023-03-24T05:51:03.687Z,100.00
2023-03-24T05:53:31.164Z,100.00
2023-03-24T05:55:58.737Z,100.00
2023-03-24T05:58:25.810Z,100.00
2023-03-24T06:00:54.590Z,100.00
2023-03-24T06:03:21.636Z,100.00
2023-03-24T06:05:49.451Z,100.00
2023-03-24T06:08:17.306Z,100.00
2023-03-24T06:10:44.432Z,100.00
2023-03-24T06:13:11.404Z,100.00
2023-03-24T06:15:42.883Z,100.00
2023-03-24T06:18:09.993Z,100.00
2023-03-24T06:20:36.991Z,100.00
2023-03-24T06:23:03.887Z,100.00
2023-03-24T06:25:30.708Z,100.00
2023-03-24T06:28:04.044Z,100.00
2023-03-24T06:30:31.073Z,100.00
2023-03-24T06:32:58.362Z,100.00
2023-03-24T06:35:25.247Z,100.00
2023-03-24T06:37:52.141Z,100.00
2023-03-24T06:40:19.786Z,100.00
2023-03-24T06:42:46.642Z,100.00
2023-03-24T06:45:13.467Z,100.00
2023-03-24T06:47:40.831Z,100.00
2023-03-24T06:50:08.058Z,100.00
2023-03-24T06:52:35.743Z,100.00
2023-03-24T06:55:03.036Z,100.00
2023-03-24T06:57:30.406Z,100.00
2023-03-24T06:59:57.293Z,100.00
2023-03-24T07:02:24.272Z,100.00
2023-03-24T07:04:54.162Z,100.00
2023-03-24T07:07:53.372Z,100.00
2023-03-24T07:10:09.695Z,100.00
2023-03-24T07:12:36.731Z,100.00
2023-03-24T07:15:04.674Z,100.00
2023-03-24T07:17:31.721Z,100.00
2023-03-24T07:19:58.829Z,100.00
2023-03-24T07:22:25.928Z,100.00
2023-03-24T07:24:54.102Z,100.00
2023-03-24T07:27:21.400Z,100.00
2023-03-24T07:29:48.382Z,100.00
2023-03-24T07:32:15.488Z,100.00
2023-03-24T07:34:43.984Z,100.00
2023-03-24T07:37:11.398Z,100.00
2023-03-24T07:39:38.421Z,100.00
2023-03-24T07:42:06.121Z,100.00
2023-03-24T07:44:33.086Z,100.00
2023-03-24T07:46:59.945Z,100.00
2023-03-24T07:49:27.330Z,100.00
2023-03-24T07:51:54.264Z,100.00
2023-03-24T07:54:21.790Z,100.00
2023-03-24T07:56:48.865Z,100.00
2023-03-24T07:59:17.339Z,100.00
2023-03-24T08:01:44.603Z,100.00
2023-03-24T08:04:14.247Z,100.00
2023-03-24T08:06:44.190Z,100.00
2023-03-24T08:09:11.962Z,100.00
2023-03-24T08:11:39.405Z,100.00
2023-03-24T08:14:06.552Z,100.00
2023-03-24T08:16:33.556Z,100.00
2023-03-24T08:19:00.647Z,100.00
2023-03-24T08:21:27.686Z,100.00
2023-03-24T08:23:54.547Z,100.00
2023-03-24T08:26:22.671Z,100.00
2023-03-24T08:28:49.715Z,100.00
2023-03-24T08:31:16.709Z,100.00
2023-03-24T08:33:43.751Z,100.00
2023-03-24T08:36:10.882Z,100.00
2023-03-24T08:38:39.004Z,100.00
2023-03-24T08:41:07.246Z,100.00
2023-03-24T08:43:36.283Z,100.00
2023-03-24T08:46:03.521Z,100.00
2023-03-24T08:48:31.140Z,100.00
2023-03-24T08:50:57.969Z,100.00
2023-03-24T08:53:24.811Z,100.00
2023-03-24T08:58:31.966Z,100.00
2023-03-24T09:00:58.864Z,100.00
2023-03-24T09:03:26.352Z,100.00
2023-03-24T09:05:59.794Z,100.00
2023-03-24T09:08:28.181Z,100.00
2023-03-24T09:10:55.026Z,100.00
2023-03-24T09:13:22.242Z,100.00
2023-03-24T09:15:54.736Z,100.00
2023-03-24T09:18:22.276Z,100.00
2023-03-24T09:20:50.397Z,100.00
2023-03-24T09:23:17.605Z,100.00
2023-03-24T09:25:44.878Z,100.00
2023-03-24T09:28:12.043Z,100.00
2023-03-24T09:30:38.903Z,100.00
2023-03-24T09:33:06.343Z,100.00
2023-03-24T09:35:33.373Z,100.00
2023-03-24T09:38:00.557Z,100.00
2023-03-24T09:40:33.252Z,100.00
2023-03-24T09:43:24.146Z,100.00
2023-03-24T09:45:54.705Z,100.00
2023-03-24T09:48:47.211Z,100.00
2023-03-24T09:51:22.772Z,100.00
2023-03-24T09:54:04.850Z,100.00
2023-03-24T09:56:32.664Z,100.00
2023-03-24T09:59:06.200Z,100.00
2023-03-24T10:01:36.209Z,100.00
2023-03-24T10:04:05.108Z,100.00
2023-03-24T10:06:41.844Z,100.00
2023-03-24T10:09:28.570Z,100.00
2023-03-24T10:12:26.309Z,100.00
2023-03-24T10:15:09.596Z,100.00
2023-03-24T10:17:58.249Z,100.00
2023-03-24T10:20:38.333Z,100.00
2023-03-24T10:23:29.678Z,100.00
2023-03-24T10:26:28.517Z,100.00
2023-03-24T10:29:22.609Z,100.00
2023-03-24T10:31:58.039Z,100.00
2023-03-24T10:34:30.479Z,100.00
2023-03-24T10:36:59.615Z,100.00
2023-03-24T10:39:37.871Z,100.00
2023-03-24T10:42:21.816Z,100.00
2023-03-24T10:44:51.320Z,100.00
2023-03-24T10:47:32.545Z,100.00
2023-03-24T10:50:12.752Z,100.00
2023-03-24T10:52:45.484Z,100.00
2023-03-24T10:55:19.341Z,100.00
2023-03-24T10:57:56.890Z,100.00
2023-03-24T11:00:32.305Z,100.00
2023-03-24T11:03:21.478Z,100.00
2023-03-24T11:05:48.764Z,100.00
2023-03-24T11:08:34.076Z,100.00
2023-03-24T11:11:00.952Z,100.00
2023-03-24T11:13:32.452Z,100.00
2023-03-24T11:16:14.350Z,100.00
2023-03-24T11:18:59.227Z,100.00
2023-03-24T11:21:28.658Z,100.00
2023-03-24T11:23:59.695Z,100.00
2023-03-24T11:26:35.926Z,100.00
2023-03-24T11:29:22.340Z,100.00
2023-03-24T11:31:58.525Z,100.00
2023-03-24T11:34:46.422Z,100.00
2023-03-24T11:37:29.614Z,100.00
2023-03-24T11:40:07.186Z,100.00
2023-03-24T11:42:34.128Z,100.00
2023-03-24T11:45:03.848Z,100.00
2023-03-24T11:47:33.263Z,100.00
2023-03-24T11:50:12.237Z,100.00
2023-03-24T11:52:55.054Z,100.00
2023-03-24T11:55:51.033Z,100.00
2023-03-24T11:58:40.563Z,100.00
2023-03-24T12:01:33.439Z,100.00
2023-03-24T12:04:29.420Z,100.00
2023-03-24T12:07:08.025Z,100.00
2023-03-24T12:09:53.688Z,100.00
2023-03-24T12:12:44.785Z,100.00
2023-03-24T12:15:28.965Z,100.00
2023-03-24T12:18:25.472Z,100.00
2023-03-24T12:21:37.548Z,100.00
2023-03-24T12:24:10.071Z,100.00
2023-03-24T12:26:39.292Z,100.00
2023-03-24T12:29:06.336Z,100.00
2023-03-24T12:31:36.038Z,100.00
2023-03-24T12:34:27.827Z,100.00
2023-03-24T12:37:14.695Z,100.00
2023-03-24T12:40:19.561Z,100.00
2023-03-24T12:42:47.052Z,100.00
2023-03-24T12:45:29.130Z,100.00
2023-03-24T12:48:05.095Z,97.04
2023-03-24T12:50:34.700Z,96.49
2023-03-24T12:53:34.574Z,97.56
2023-03-24T12:56:10.103Z,97.88
2023-03-24T12:58:39.861Z,97.07
2023-03-24T13:01:35.051Z,97.72
2023-03-24T13:04:01.944Z,98.62
2023-03-24T13:06:47.407Z,100.00
2023-03-24T13:09:40.265Z,99.72
2023-03-24T13:12:30.362Z,99.74
2023-03-24T13:15:12.410Z,100.00
2023-03-24T13:18:10.422Z,100.00
2023-03-24T13:20:54.429Z,100.00
2023-03-24T13:23:46.248Z,100.00
2023-03-24T13:26:36.763Z,99.46
2023-03-24T13:29:03.894Z,98.82
2023-03-24T13:31:54.088Z,98.50
2023-03-24T13:34:28.748Z,99.26
2023-03-24T13:37:02.691Z,97.76
2023-03-24T13:39:31.466Z,93.49
2023-03-24T13:41:59.496Z,89.31
2023-03-24T13:44:49.792Z,88.07
2023-03-24T13:47:18.410Z,82.52
2023-03-24T13:50:13.476Z,78.09
2023-03-24T13:52:46.758Z,79.13
2023-03-24T13:55:26.187Z,78.23
2023-03-24T13:58:13.212Z,81.58
2023-03-24T14:01:05.492Z,86.24
2023-03-24T14:03:36.831Z,86.41
2023-03-24T14:06:07.568Z,88.96
2023-03-24T14:08:43.682Z,89.88
2023-03-24T14:11:41.452Z,91.37
2023-03-24T14:14:20.308Z,92.83
2023-03-24T14:17:05.318Z,92.33
2023-03-24T14:19:39.428Z,91.62
2023-03-24T14:22:11.937Z,91.50
2023-03-24T14:24:40.431Z,92.70
2023-03-24T14:27:35.056Z,94.25
2023-03-24T14:30:11.290Z,93.67
2023-03-24T14:32:46.562Z,94.08
2023-03-24T14:35:34.482Z,93.82
2023-03-24T14:38:16.376Z,92.92
2023-03-24T14:40:52.779Z,92.75
2023-03-24T14:43:26.051Z,92.66
2023-03-24T14:46:13.584Z,91.77
2023-03-24T14:48:51.655Z,91.95
2023-03-24T14:51:29.001Z,91.90
2023-03-24T14:53:59.574Z,92.22
2023-03-24T14:56:35.039Z,92.02
2023-03-24T14:59:08.724Z,91.57
2023-03-24T15:01:36.195Z,91.05
2023-03-24T15:04:07.190Z,91.76
2023-03-24T15:06:44.720Z,91.94
2023-03-24T15:09:11.652Z,91.49
2023-03-24T15:11:40.556Z,90.54
2023-03-24T15:14:22.795Z,90.42
2023-03-24T15:17:03.049Z,90.10
2023-03-24T15:19:31.472Z,90.57
2023-03-24T15:22:11.706Z,89.90
2023-03-24T15:24:42.321Z,89.06
2023-03-24T15:27:15.570Z,89.15
2023-03-24T15:29:44.233Z,89.15
2023-03-24T15:32:19.248Z,89.71
2023-03-24T15:34:52.063Z,90.06
2023-03-24T15:37:34.919Z,90.40
2023-03-24T15:40:15.109Z,90.10
2023-03-24T15:42:46.270Z,89.96
2023-03-24T15:45:28.865Z,90.68
2023-03-24T15:47:56.954Z,90.75
2023-03-24T15:50:34.519Z,91.09
2023-03-24T15:53:19.586Z,91.05
2023-03-24T15:55:46.480Z,91.06
2023-03-24T15:58:28.523Z,91.08
2023-03-24T16:00:58.024Z,91.50
2023-03-24T16:03:26.563Z,91.55
2023-03-24T16:05:56.150Z,92.17
2023-03-24T16:08:31.698Z,92.40
2023-03-24T16:11:01.529Z,92.73
2023-03-24T16:13:28.726Z,92.95
2023-03-24T16:16:00.125Z,93.41
2023-03-24T16:18:33.251Z,93.62
2023-03-24T16:21:13.628Z,93.64
2023-03-24T16:23:42.416Z,94.10
2023-03-24T16:26:27.417Z,94.30
2023-03-24T16:28:57.007Z,94.73
2023-03-24T16:31:30.720Z,94.64
2023-03-24T16:33:58.269Z,94.44
2023-03-24T16:36:28.459Z,93.95
2023-03-24T16:38:57.798Z,93.15
2023-03-24T16:41:25.510Z,92.78
2023-03-24T16:43:53.295Z,92.39
2023-03-24T16:46:26.407Z,92.71
2023-03-24T16:48:53.750Z,92.10
2023-03-24T16:51:20.636Z,91.70
2023-03-24T16:53:48.126Z,91.59
2023-03-24T16:56:18.065Z,89.37
2023-03-24T16:58:48.057Z,84.69
2023-03-24T17:01:39.727Z,84.32
2023-03-24T17:04:16.346Z,81.11
2023-03-24T17:06:53.532Z,80.04
2023-03-24T17:09:21.032Z,80.11
2023-03-24T17:11:51.578Z,79.99
2023-03-24T17:14:18.734Z,80.66
2023-03-24T17:16:49.162Z,80.92
2023-03-24T17:19:18.946Z,81.94
2023-03-24T17:22:11.236Z,82.36
2023-03-24T17:24:41.771Z,82.65
2023-03-24T17:27:13.815Z,83.12
2023-03-24T17:29:40.428Z,83.16
2023-03-24T17:32:07.094Z,83.34
2023-03-24T17:34:33.955Z,83.47
2023-03-24T17:37:00.887Z,84.50
2023-03-24T17:39:27.468Z,85.08
2023-03-24T17:41:57.627Z,85.54
2023-03-24T17:44:24.352Z,86.23
2023-03-24T17:46:51.382Z,88.58
2023-03-24T17:49:18.122Z,89.21
2023-03-24T17:51:44.843Z,90.22
2023-03-24T17:54:12.290Z,91.84
2023-03-24T17:56:39.212Z,92.36
2023-03-24T17:59:05.966Z,92.74
2023-03-24T18:01:35.316Z,93.10
2023-03-24T18:04:02.052Z,93.60
2023-03-24T18:06:30.753Z,94.26
2023-03-24T18:08:57.859Z,94.92
2023-03-24T18:11:24.377Z,96.24
2023-03-24T18:13:52.059Z,95.95
2023-03-24T18:16:21.866Z,96.81
2023-03-24T18:18:49.274Z,96.46
2023-03-24T18:21:16.191Z,97.66
2023-03-24T18:23:42.889Z,97.59
2023-03-24T18:26:09.572Z,97.72
2023-03-24T18:28:37.570Z,97.97
2023-03-24T18:31:10.506Z,98.11
2023-03-24T18:33:37.143Z,97.60
2023-03-24T18:36:04.602Z,98.28
2023-03-24T18:38:31.800Z,97.95
2023-03-24T18:40:58.382Z,97.08
2023-03-24T18:43:25.287Z,96.00
2023-03-24T18:45:52.249Z,95.77
2023-03-24T18:48:19.463Z,97.27
2023-03-24T18:50:47.831Z,97.44
2023-03-24T18:53:14.870Z,97.62
2023-03-24T18:55:46.700Z,99.55
2023-03-24T18:58:15.474Z,98.30
2023-03-24T19:00:42.985Z,100.00
2023-03-24T19:03:10.238Z,100.00
2023-03-24T19:05:37.279Z,100.00
2023-03-24T19:08:07.520Z,100.00
2023-03-24T19:10:38.109Z,100.00
2023-03-24T19:13:05.989Z,100.00
2023-03-24T19:15:35.507Z,100.00
2023-03-24T19:18:03.713Z,100.00
2023-03-24T19:20:30.743Z,100.00
2023-03-24T19:22:57.348Z,99.81
2023-03-24T19:25:24.747Z,100.00
2023-03-24T19:27:51.945Z,100.00
2023-03-24T19:30:18.680Z,100.00
2023-03-24T19:32:46.742Z,100.00
2023-03-24T19:35:13.534Z,100.00
2023-03-24T19:37:40.645Z,100.00
2023-03-24T19:40:11.885Z,100.00
2023-03-24T19:42:41.796Z,100.00
2023-03-24T19:45:08.964Z,100.00
2023-03-24T19:47:35.632Z,100.00
2023-03-24T19:50:03.364Z,100.00
2023-03-24T19:52:30.249Z,100.00
2023-03-24T19:54:56.891Z,100.00
2023-03-24T19:57:24.086Z,100.00
2023-03-24T19:59:51.111Z,100.00
2023-03-24T20:02:18.865Z,100.00
2023-03-24T20:04:45.838Z,100.00
2023-03-24T20:07:12.546Z,100.00
2023-03-24T20:09:39.119Z,100.00
2023-03-24T20:12:06.114Z,100.00
2023-03-24T20:14:33.751Z,100.00
2023-03-24T20:17:00.813Z,100.00
2023-03-24T20:19:27.665Z,100.00
2023-03-24T20:21:54.363Z,100.00
2023-03-24T20:24:21.123Z,100.00
2023-03-24T20:26:48.498Z,100.00
2023-03-24T20:29:15.425Z,100.00
2023-03-24T20:31:42.988Z,100.00
2023-03-24T20:34:10.861Z,100.00
2023-03-24T20:36:38.532Z,100.00
2023-03-24T20:39:05.955Z,100.00
2023-03-24T20:41:32.947Z,100.00
2023-03-24T20:43:59.705Z,100.00
2023-03-24T20:46:26.322Z,100.00
2023-03-24T20:48:53.056Z,100.00
2023-03-24T20:51:19.934Z,100.00
2023-03-24T20:53:49.781Z,100.00
2023-03-24T20:56:16.946Z,100.00
2023-03-24T20:58:44.711Z,100.00
2023-03-24T21:01:22.347Z,100.00
2023-03-24T21:03:50.409Z,100.00
2023-03-24T21:06:17.392Z,100.00
2023-03-24T21:08:45.230Z,100.00
2023-03-24T21:11:12.064Z,100.00
2023-03-24T21:13:38.962Z,100.00
2023-03-24T21:16:08.088Z,100.00
2023-03-24T21:18:36.117Z,100.00
2023-03-24T21:21:05.415Z,100.00
2023-03-24T21:23:34.257Z,100.00
2023-03-24T21:26:01.603Z,100.00
2023-03-24T21:28:30.420Z,100.00
2023-03-24T21:30:58.208Z,100.00
2023-03-24T21:33:24.830Z,100.00
2023-03-24T21:35:51.904Z,100.00
2023-03-24T21:38:18.836Z,100.00
2023-03-24T21:40:46.497Z,100.00
2023-03-24T21:43:14.857Z,100.00
2023-03-24T21:45:46.350Z,100.00
2023-03-24T21:48:14.125Z,100.00
2023-03-24T21:50:42.755Z,100.00
2023-03-24T21:53:15.549Z,100.00
2023-03-24T21:55:52.637Z,100.00
2023-03-24T21:58:19.617Z,100.00
2023-03-24T22:00:46.838Z,100.00
2023-03-24T22:03:13.611Z,100.00
2023-03-24T22:05:40.450Z,100.00
2023-03-24T22:08:07.240Z,100.00
2023-03-24T22:10:37.134Z,100.00
2023-03-24T22:13:04.265Z,100.00
2023-03-24T22:15:32.512Z,100.00
2023-03-24T22:17:59.975Z,100.00
2023-03-24T22:20:28.274Z,100.00
2023-03-24T22:22:54.936Z,100.00
2023-03-24T22:25:21.605Z,100.00
2023-03-24T22:27:50.014Z,100.00
2023-03-24T22:30:18.138Z,100.00
2023-03-24T22:32:44.734Z,100.00
2023-03-24T22:35:11.350Z,100.00
2023-03-24T22:37:37.859Z,100.00
2023-03-24T22:40:05.762Z,100.00
2023-03-24T22:42:32.355Z,100.00
2023-03-24T22:44:58.917Z,100.00
2023-03-24T22:47:25.672Z,100.00
2023-03-24T22:49:52.287Z,100.00
2023-03-24T22:52:18.857Z,100.00
2023-03-24T22:54:45.455Z,100.00
2023-03-24T22:57:12.160Z,100.00
2023-03-24T22:59:38.780Z,100.00
2023-03-24T23:02:10.091Z,100.00
2023-03-24T23:04:37.237Z,100.00
2023-03-24T23:07:05.269Z,100.00
2023-03-24T23:09:31.871Z,100.00
2023-03-24T23:11:58.456Z,100.00
2023-03-24T23:14:25.556Z,100.00
2023-03-24T23:16:52.459Z,100.00
2023-03-24T23:19:19.505Z,100.00
2023-03-24T23:21:46.028Z,100.00
2023-03-24T23:24:12.592Z,100.00
2023-03-24T23:26:39.112Z,100.00
2023-03-24T23:29:05.855Z,100.00
2023-03-24T23:31:32.440Z,100.00
2023-03-24T23:34:00.220Z,100.00
2023-03-24T23:36:28.273Z,100.00
2023-03-24T23:38:55.772Z,100.00
2023-03-24T23:41:22.455Z,100.00
2023-03-24T23:43:50.162Z,100.00
2023-03-24T23:46:17.321Z,100.00
2023-03-24T23:48:43.974Z,100.00
2023-03-24T23:51:10.560Z,100.00
2023-03-24T23:53:37.529Z,100.00
2023-03-24T23:56:08.859Z,100.00
2023-03-24T23:58:37.081Z,100.00
